KFTY

Fulton County-Brown Field Airport

Atlanta, Georgia, USA
METAR KFTY 231406Z 00000KT 10SM BKN008 17/16 A3041 RMK AO2 CIG 007V010 T01670161
Observed Flight Rules
Feb-23 @ 14:06 UTC (17 minutes ago) Instrument Flight Rules
Wind Visibility Clouds
Calm 10 miles
  • Broken at 800' AGL
Temperatures Readings
Current 17°C / 63°F
Dewpoint 16°C / 61°F
Humidity 94%
Altimeter 30.41" Hg
Pressure 1030 hPa
Elevation 263
METAR KFTY 231406Z 00000KT 10SM BKN008 17/16 A3041 RMK AO2 CIG 007V010 T01670161
Observed Flight Rules
Feb-23 @ 14:06 UTC
(17 minutes ago)
IFR
Wind Visibility
Calm 10 miles
Clouds
  • Broken at 800' AGL
Temperature Dewpoint
17°C / 63°F 16°C / 61°F
Humidity Altimeter Pressure
94% 30.41" Hg 1030 hPa